Terminal Aerodrome Forecast
Issued by NWS

Home | Current Version | Previous Version | Text Only | Print | Product List | Glossary On
Versions: 1 2 3 4 5 6 7 8 9 10 11 12 13 14 15 16 17 18 19 20 21 22 23 24 25 26 27 28 29 30 31 32 33 34 35 36 37 38 39
000
FTUS42 KGSP 270540
TAFHKY
TAF
KHKY 270540Z 2706/2806 00000KT P6SM SKC
      TEMPO 2708/2712 5SM BR FEW030
     FM271800 09004KT P6SM SCT040 PROB30 2719/2723 4SM -TSRA
      BKN045CB
     FM280100 07005KT P6SM SCT050
     FM280400 34003KT P6SM SCT100=

USA.gov is the U.S. government's official web portal to all federal, state and local government web resources and services.